Tulelake, CA

12:46 AM PDT on September 01, 2014 (GMT -0700)
KLAMATH NWR | Change Station
CLOSE
Current Station
Personal Weather Station
Location: Tulelake, CA
Elevation: 4412 ft
Nearby Weather Stations

Elev 4412 ft 41.95 °N, 121.58 °W | Updated 59 minutes ago

Clear
Clear
41.0 °F
Feels Like 38 °F
N
4.0
Wind Variable Wind from NNE

Today
High -- | Low -- °F
--% Chance of Precip.
Yesterday
High -- | Low -- °F
Precip. -- in
6:31 AM 7:39 PM
Waxing Crescent, 38% visible
Pressure 30.03 in
Visibility 10.0 miles
Clouds Clear
Windchill 38 °F
Dew Point 33 °F
Humidity 73%
Rainfall -999.00 in
Snow Depth Not available.
UV 0 out of 12
Pollen 5.30 out of 12
Air Quality Not available.
Flu Activity Not available.
METAR KLMT 010653Z AUTO 10003KT 10SM CLR 09/04 A3010 RMK AO2 SLP168 T00940044 $

More Conditions Fewer Conditions

Pressure 30.03 in
Visibility 10.0 miles
Clouds Clear
Windchill 38 °F
Dew Point 33 °F
Humidity 73%
Rainfall -999.00 in
Snow Depth Not available.
UV 0 out of 12
Pollen 5.30 out of 12
Air Quality Not available.
Flu Activity Not available.
METAR KLMT 010653Z AUTO 10003KT 10SM CLR 09/04 A3010 RMK AO2 SLP168 T00940044 $

More Conditions Fewer Conditions

10-Day Weather Forecast

Almanac

Astronomy

Sep. 01, 2014 Rise Set
Actual Time 6:31 AM PDT 7:39 PM PDT
Civil Twilight 6:03 AM PDT 8:07 PM PDT
Nautical Twilight 5:28 AM PDT 8:41 PM PDT
Astronomical Twilight 4:52 AM PDT 9:17 PM PDT
Moon 1:28 PM PDT 11:38 PM PDT
Length of Visible Light 14h 04m
Length of Day
13h 07m
Tomorrow will be 2m 42s shorter.
Waxing Crescent, 38% of the Moon is Illuminated
Today
Waxing Crescent
Sep 2
First Quarter
Sep 8
Full
Sep 15
Last Quarter
Sep 24
New

Today's Extremes

State Highs State Lows

Community

WunderPhotos

Upload Photos

1,749,154 photos uploaded!

Nearby

Snow Depth

Station Depth Elevation
Adin Mountain 0 in 6200 ft
Cedar Pass 1 in 7100 ft
CSS Lab 3 in 6900 ft
Tahoe City Cross 0 in 6750 ft
Rubicon #2 0 in 7500 ft

Earthquake Activity

City Distance Mag. Time & Date
Lakeview, Oregon 93 miles 2.8 3:14 PM PDT
2014-08-29
Lakeview, Oregon 93 miles 2.7 2:21 PM PDT
2014-08-29
Lakeview, Oregon 93 miles 3.0 10:47 AM PDT
2014-08-29
Lakeview, Oregon 93 miles 2.5 5:31 AM PDT
2014-08-29
Minimum magnitude displayed is 2.5.

Coastal Water Temperatures

Place Temperature
No Stations Reporting

Nearby Weather Stations